Airfield :







YOU CAN JOIN US ON...

 
LOGIN :

Register | Disclaimer

   EN    FR    IT 

 









Legend :    VFR   Marginal VFR   IFR   Intensive IFR   Very Intensive IFR
Visi :
Ceiling :
>= 8 km
>= 3000ft
5 to 8 km
1000 to 3000 ft
1500m to 5 km
500 to 1000 ft
800 to 1500m
200 to 500 ft
< 800m
< 200 ft
Symbols :   Thunderstorms  Fog  Heavy snow  Heavy precipitations  Wind > 20 kt






- Airport Elevation : 160 ft
- IATA code : YYG


CYYG - Charlottetown

CURRENT METAR :
  • 220300Z 17012KT 15SM FEW060 BKN260 20/17 A2974 RMK SC1CI5 SLP072 DENSITY ALT 1000FT

EXPIRED METARs :
  • 220200Z 18011KT 15SM FEW060 BKN260 21/15 A2975 RMK SC1CI5 SC TR SLP075 DENSITY ALT 1100FT
  • 220100Z 18016G21KT 15SM FEW060 SCT240 BKN280 23/14 A2975 RMK SC1CC3CI3 SC TR SLP074 DENSITY ALT 1300FT

TAF TAF CYYG
Valid from the 22 at 00:00 until the 22 at 12:00 UTC


212338Z 2200/2212 18010KT P6SM FEW060 SCT240
FM220400 18012KT P6SM SCT012
TEMPO 2204/2212 BKN012
BECMG 2210/2212 18015G25KT RMK NXT FCST BY 220600Z
CZQM FIR / North America



MET'MAP, your aeronautical weather chart ! - Copyright ORBIFLY December 2007 - Disclaimer

ORBIFLY MET'MAP TEAM :

Programming & Development : Alexandra Zaïnal
Concept & original design : Baudouin d'Aumeries
Assistance for programming : Marc-Olivier Méhu
Technical & hardware support : Manuel Goepfert

Contact : metmap@orbifly.com




SOURCES & CREDITS :

   NOAA